Time;durP1;ratioP1;P1;durP2;ratioP2;P2;SDS_P1;SDS_P2;PMS_P1;PMS_P2;Temp;Humidity;BMP_temperature;BMP_pressure;BME280_temperature;BME280_humidity;BME280_pressure;Samples;Min_cycle;Max_cycle;Signal;HPM_P1;HPM_P2
2021/09/29 00:01:37;;;;;;;4.75;2.40;;;16.60;65.70;;;;;;2337913;54;21042;-76
2021/09/29 00:04:04;;;;;;;5.53;2.33;;;16.60;65.70;;;;;;2493039;53;20962;-68
2021/09/29 00:06:30;;;;;;;4.68;1.85;;;16.60;65.70;;;;;;2333735;54;20928;-68
2021/09/29 00:08:56;;;;;;;4.25;1.50;;;16.50;65.60;;;;;;2333589;54;20943;-68
2021/09/29 00:11:23;;;;;;;3.22;1.35;;;16.60;65.80;;;;;;2334200;54;20939;-71
2021/09/29 00:13:49;;;;;;;3.22;1.45;;;16.60;65.90;;;;;;2556408;53;21900;-72
2021/09/29 00:16:17;;;;;;;2.72;1.50;;;16.60;66.00;;;;;;2381043;53;21491;-70
2021/09/29 00:18:44;;;;;;;3.17;1.50;;;16.50;66.00;;;;;;2323766;54;21007;-72
2021/09/29 00:21:10;;;;;;;2.87;1.45;;;16.50;66.10;;;;;;2326274;54;21003;-74
2021/09/29 00:23:37;;;;;;;3.65;1.80;;;16.60;66.30;;;;;;2326433;54;20974;-69
2021/09/29 00:26:03;;;;;;;2.80;1.40;;;16.60;66.30;;;;;;2328323;54;20979;-68
2021/09/29 00:28:29;;;;;;;2.80;1.37;;;16.60;66.30;;;;;;2319228;54;20971;-69
2021/09/29 00:31:22;;;;;;;3.40;1.25;;;16.60;66.20;;;;;;2466913;52;20935;-68
2021/09/29 00:34:06;;;;;;;3.50;1.67;;;16.60;66.30;;;;;;2337983;54;21020;-69
2021/09/29 00:36:34;;;;;;;3.55;1.45;;;16.60;67.10;;;;;;2343489;55;20939;-73
2021/09/29 00:39:00;;;;;;;2.12;1.23;;;16.60;67.20;;;;;;2337316;54;20962;-68
2021/09/29 00:41:27;;;;;;;2.97;1.40;;;16.60;66.50;;;;;;2322316;54;20927;-69
2021/09/29 00:43:53;;;;;;;3.80;1.40;;;16.60;66.60;;;;;;2324338;54;21420;-67
2021/09/29 00:46:19;;;;;;;2.53;1.30;;;16.60;66.60;;;;;;2330229;54;20964;-68
2021/09/29 00:48:45;;;;;;;2.50;1.40;;;16.60;66.60;;;;;;2305801;54;21070;-68
2021/09/29 00:51:13;;;;;;;3.30;1.30;;;16.60;66.70;;;;;;2571953;52;20938;-71
2021/09/29 00:53:39;;;;;;;3.42;1.67;;;16.60;66.80;;;;;;2396468;53;20944;-73
2021/09/29 00:56:06;;;;;;;4.45;1.17;;;16.70;66.90;;;;;;2325443;54;20966;-67
2021/09/29 00:58:32;;;;;;;3.15;1.67;;;16.70;66.90;;;;;;2335222;54;20987;-68
2021/09/29 01:01:01;;;;;;;4.03;1.67;;;16.70;66.90;;;;;;2334528;54;21050;-68
2021/09/29 01:03:28;;;;;;;3.80;1.48;;;16.70;66.90;;;;;;2324637;54;20958;-69
2021/09/29 01:05:57;;;;;;;4.12;1.50;;;16.70;66.90;;;;;;2332992;54;20943;-68
2021/09/29 01:08:29;;;;;;;2.75;1.42;;;16.70;67.00;;;;;;2323339;54;21054;-69
2021/09/29 01:11:15;;;;;;;3.60;1.55;;;16.70;67.00;;;;;;2343565;55;21723;-68
2021/09/29 01:13:55;;;;;;;6.25;1.55;;;16.80;67.10;;;;;;2343329;55;20939;-69
2021/09/29 01:16:21;;;;;;;3.20;1.75;;;16.80;67.10;;;;;;2322446;54;21412;-67
2021/09/29 01:18:51;;;;;;;3.72;1.60;;;16.80;67.10;;;;;;2336474;54;21456;-68
2021/09/29 01:21:17;;;;;;;3.12;1.67;;;16.90;67.20;;;;;;2344510;55;20955;-68
2021/09/29 01:24:11;;;;;;;3.78;2.12;;;16.90;67.30;;;;;;2323194;53;21050;-69
2021/09/29 01:26:40;;;;;;;3.60;1.83;;;16.90;67.00;;;;;;2335262;54;21015;-68
2021/09/29 01:29:11;;;;;;;3.72;1.70;;;17.00;67.20;;;;;;2328297;54;21044;-68
2021/09/29 01:31:37;;;;;;;3.78;1.60;;;17.00;67.10;;;;;;2574115;53;21793;-72
2021/09/29 01:34:05;;;;;;;3.33;1.35;;;17.10;67.30;;;;;;2326591;54;20935;-70
2021/09/29 01:36:31;;;;;;;3.03;1.55;;;17.10;67.20;;;;;;2343466;55;20995;-69
2021/09/29 01:38:58;;;;;;;3.85;1.67;;;17.10;67.20;;;;;;2342937;55;20946;-68
2021/09/29 01:41:29;;;;;;;3.67;1.85;;;17.10;67.20;;;;;;2479299;53;21157;-67
2021/09/29 01:43:56;;;;;;;2.80;1.30;;;17.20;67.30;;;;;;2343802;55;21809;-72
2021/09/29 01:46:24;;;;;;;3.17;1.40;;;17.20;67.20;;;;;;2562137;53;20947;-67
2021/09/29 01:49:06;;;;;;;3.10;1.65;;;17.20;67.10;;;;;;2461835;53;21536;-68
2021/09/29 01:51:35;;;;;;;3.60;1.30;;;17.30;67.20;;;;;;2323234;55;20996;-66
2021/09/29 01:54:02;;;;;;;3.80;1.60;;;17.30;67.20;;;;;;2326654;54;20952;-69
2021/09/29 01:56:29;;;;;;;3.92;1.58;;;17.30;67.10;;;;;;2343588;55;20918;-72
2021/09/29 01:58:55;;;;;;;9.95;3.10;;;17.40;67.10;;;;;;2324771;54;20991;-69
2021/09/29 02:01:21;;;;;;;5.37;1.87;;;17.40;67.00;;;;;;2343807;55;21303;-68
2021/09/29 02:03:49;;;;;;;3.67;1.73;;;17.50;67.00;;;;;;2343573;55;21105;-68
2021/09/29 02:06:16;;;;;;;7.15;2.05;;;17.50;66.90;;;;;;2321946;54;20963;-69
2021/09/29 02:08:42;;;;;;;3.78;1.70;;;17.50;66.80;;;;;;2568457;53;20982;-68
2021/09/29 02:11:09;;;;;;;3.78;1.58;;;17.50;66.70;;;;;;2331199;54;21416;-68
2021/09/29 02:13:35;;;;;;;3.20;1.60;;;17.50;66.70;;;;;;2311814;54;20967;-68
2021/09/29 02:16:04;;;;;;;4.05;1.65;;;17.50;66.70;;;;;;2321760;54;22460;-68
2021/09/29 02:18:31;;;;;;;3.85;1.35;;;17.60;66.60;;;;;;2319281;54;20951;-68
2021/09/29 02:20:57;;;;;;;4.90;1.92;;;17.60;66.70;;;;;;2345329;54;21008;-68
2021/09/29 02:23:23;;;;;;;3.47;1.40;;;17.60;66.60;;;;;;2325857;54;20952;-67
2021/09/29 02:25:55;;;;;;;4.62;1.58;;;17.60;66.50;;;;;;2328554;54;21018;-68
2021/09/29 02:28:22;;;;;;;2.50;1.30;;;17.60;66.30;;;;;;2339954;54;20923;-68
2021/09/29 02:30:48;;;;;;;2.78;1.15;;;17.60;66.30;;;;;;2590535;53;21019;-69
2021/09/29 02:33:14;;;;;;;2.55;1.12;;;17.60;66.30;;;;;;2328949;54;21491;-68
2021/09/29 02:35:41;;;;;;;3.65;1.33;;;17.70;66.30;;;;;;2327283;54;21034;-72
2021/09/29 02:38:07;;;;;;;2.95;1.30;;;17.60;66.10;;;;;;2330988;54;21299;-71
2021/09/29 02:40:36;;;;;;;3.03;1.17;;;17.60;66.10;;;;;;2342950;55;20958;-68
2021/09/29 02:43:02;;;;;;;3.92;1.17;;;17.70;66.10;;;;;;2343604;55;20987;-67
2021/09/29 02:45:29;;;;;;;3.17;1.23;;;17.60;65.90;;;;;;2343996;55;21405;-68
2021/09/29 02:47:55;;;;;;;4.07;1.30;;;17.60;65.80;;;;;;2329832;54;21448;-72
2021/09/29 02:50:22;;;;;;;2.75;1.27;;;17.60;65.90;;;;;;2328135;54;20943;-68
2021/09/29 02:52:48;;;;;;;4.90;1.50;;;17.60;65.80;;;;;;2341372;54;21023;-70
2021/09/29 02:55:16;;;;;;;3.00;1.30;;;17.60;65.80;;;;;;2327103;54;20995;-68
2021/09/29 02:57:42;;;;;;;6.10;1.67;;;17.60;65.80;;;;;;2342431;55;20971;-69
2021/09/29 03:00:10;;;;;;;3.42;1.62;;;17.60;65.80;;;;;;2325776;54;21003;-68
2021/09/29 03:02:37;;;;;;;4.60;1.60;;;17.60;65.80;;;;;;2344498;55;20974;-70
2021/09/29 03:05:04;;;;;;;3.20;1.45;;;17.60;65.80;;;;;;2343552;55;21007;-70
2021/09/29 03:07:31;;;;;;;3.83;1.80;;;17.60;65.90;;;;;;2590101;53;21035;-67
2021/09/29 03:09:58;;;;;;;2.67;1.45;;;17.60;65.90;;;;;;2568184;53;20970;-69
2021/09/29 03:12:24;;;;;;;3.20;1.75;;;17.60;65.90;;;;;;2330653;54;20926;-68
2021/09/29 03:14:51;;;;;;;6.35;1.83;;;17.60;65.90;;;;;;2325225;54;21007;-70
2021/09/29 03:17:17;;;;;;;11.73;1.85;;;17.60;66.60;;;;;;2320349;54;21015;-71
2021/09/29 03:19:45;;;;;;;3.08;1.65;;;17.60;65.90;;;;;;2327013;54;20930;-70
2021/09/29 03:22:11;;;;;;;4.80;1.50;;;17.60;65.80;;;;;;2343780;55;21011;-70
2021/09/29 03:24:39;;;;;;;3.10;1.37;;;17.70;65.90;;;;;;2533500;53;20972;-66
2021/09/29 03:27:05;;;;;;;5.40;1.50;;;17.70;65.80;;;;;;2343822;55;20912;-68
2021/09/29 03:29:32;;;;;;;2.50;1.20;;;17.70;65.80;;;;;;2330788;54;20999;-68
2021/09/29 03:32:02;;;;;;;3.62;1.33;;;17.70;65.70;;;;;;2327257;54;20971;-67
2021/09/29 03:34:29;;;;;;;3.42;1.30;;;17.70;65.40;;;;;;2329035;54;21069;-68
2021/09/29 03:36:55;;;;;;;3.62;1.23;;;17.70;65.40;;;;;;2335657;54;20991;-68
2021/09/29 03:39:22;;;;;;;4.37;1.37;;;17.70;65.40;;;;;;2361798;53;21518;-68
2021/09/29 03:41:48;;;;;;;4.32;1.10;;;17.70;65.30;;;;;;2328860;53;21610;-69
2021/09/29 03:44:14;;;;;;;3.75;1.10;;;17.70;65.30;;;;;;2589872;53;21364;-71
2021/09/29 03:46:40;;;;;;;1.65;0.85;;;17.60;65.10;;;;;;2562093;53;21855;-70
2021/09/29 03:49:09;;;;;;;2.22;0.90;;;17.60;65.10;;;;;;2464912;53;20975;-75
2021/09/29 03:51:37;;;;;;;3.03;1.10;;;17.60;65.00;;;;;;2333458;54;20924;-70
2021/09/29 03:54:03;;;;;;;3.05;1.20;;;17.60;65.00;;;;;;2379958;53;21014;-71
2021/09/29 03:56:30;;;;;;;3.78;1.00;;;17.60;64.90;;;;;;2325327;54;21437;-72
2021/09/29 03:58:56;;;;;;;1.85;0.88;;;17.60;64.90;;;;;;2339971;54;20979;-70
2021/09/29 04:01:23;;;;;;;2.30;0.93;;;17.60;64.90;;;;;;2325804;54;21000;-71
2021/09/29 04:03:49;;;;;;;3.67;1.00;;;17.60;64.90;;;;;;2342105;55;21003;-70
2021/09/29 04:06:15;;;;;;;2.87;1.15;;;17.50;64.90;;;;;;2319386;54;20947;-69
2021/09/29 04:08:42;;;;;;;2.25;0.80;;;17.60;64.90;;;;;;2342107;54;20951;-68
2021/09/29 04:11:10;;;;;;;2.03;0.80;;;17.50;64.80;;;;;;2327302;54;21852;-68
2021/09/29 04:13:37;;;;;;;2.80;0.90;;;17.50;64.90;;;;;;2342283;54;20943;-68
2021/09/29 04:16:04;;;;;;;3.47;0.75;;;17.60;64.90;;;;;;2556635;52;21780;-68
2021/09/29 04:18:31;;;;;;;2.62;0.82;;;17.50;64.70;;;;;;2418949;52;21785;-68
2021/09/29 04:20:57;;;;;;;2.03;1.10;;;17.60;64.80;;;;;;2342788;54;20979;-68
2021/09/29 04:23:24;;;;;;;2.20;0.70;;;17.50;64.70;;;;;;2588943;53;20927;-69
2021/09/29 04:25:52;;;;;;;2.85;0.70;;;17.50;64.60;;;;;;2403636;53;20928;-69
2021/09/29 04:28:20;;;;;;;2.42;0.77;;;17.50;64.50;;;;;;2324753;54;21862;-69
2021/09/29 04:30:46;;;;;;;4.50;0.80;;;17.50;64.50;;;;;;2341398;54;21456;-69
2021/09/29 04:33:14;;;;;;;2.72;0.80;;;17.50;64.50;;;;;;2462153;53;21047;-68
2021/09/29 04:35:40;;;;;;;2.45;1.02;;;17.50;64.40;;;;;;2394424;53;20992;-69
2021/09/29 04:38:07;;;;;;;1.90;0.90;;;17.50;64.40;;;;;;2346913;55;20919;-68
2021/09/29 04:40:33;;;;;;;3.35;0.80;;;17.50;64.40;;;;;;2319661;54;21022;-68
2021/09/29 04:43:02;;;;;;;2.70;0.70;;;17.40;64.30;;;;;;2542281;53;20951;-68
2021/09/29 04:45:29;;;;;;;2.50;0.80;;;17.50;64.40;;;;;;2398396;53;21075;-68
2021/09/29 04:47:55;;;;;;;2.22;0.80;;;17.40;64.30;;;;;;2561977;52;21337;-68
2021/09/29 04:50:24;;;;;;;1.40;0.60;;;17.40;64.30;;;;;;2377453;53;22765;-68
2021/09/29 04:52:54;;;;;;;2.22;0.70;;;17.40;64.30;;;;;;2573151;53;20930;-68
2021/09/29 04:55:20;;;;;;;1.77;0.68;;;17.40;64.20;;;;;;2404354;53;1334936;-69
2021/09/29 04:57:47;;;;;;;1.92;0.80;;;17.40;64.30;;;;;;2320042;54;20919;-69
2021/09/29 05:00:15;;;;;;;2.05;0.73;;;17.40;65.00;;;;;;2329120;54;21606;-68
2021/09/29 05:02:44;;;;;;;2.22;0.82;;;17.30;64.20;;;;;;2327280;54;20943;-74
2021/09/29 05:05:11;;;;;;;1.77;0.60;;;17.30;64.10;;;;;;2335267;54;20994;-66
2021/09/29 05:07:39;;;;;;;2.70;0.65;;;17.30;64.30;;;;;;2332833;54;20911;-69
2021/09/29 05:10:06;;;;;;;2.30;0.80;;;17.30;65.00;;;;;;2344092;55;20980;-72
2021/09/29 05:12:33;;;;;;;1.40;0.70;;;17.30;64.30;;;;;;2560536;53;20952;-69
2021/09/29 05:14:59;;;;;;;2.08;0.65;;;17.30;64.30;;;;;;2343943;55;21825;-68
2021/09/29 05:17:26;;;;;;;2.22;0.70;;;17.30;64.40;;;;;;2343528;55;20946;-69
2021/09/29 05:19:53;;;;;;;2.60;0.60;;;17.30;64.40;;;;;;2332918;54;20935;-69
2021/09/29 05:22:19;;;;;;;2.00;0.57;;;17.30;64.50;;;;;;2334994;54;20980;-68
2021/09/29 05:24:45;;;;;;;2.60;0.75;;;17.30;64.50;;;;;;2343990;55;20911;-69
2021/09/29 05:27:12;;;;;;;1.12;0.60;;;17.30;64.50;;;;;;2343081;55;20959;-67
2021/09/29 05:29:42;;;;;;;3.65;0.70;;;17.30;64.50;;;;;;2330407;54;20967;-69
2021/09/29 05:32:08;;;;;;;2.00;0.68;;;17.30;64.50;;;;;;2338892;54;21633;-69
2021/09/29 05:34:35;;;;;;;1.83;0.73;;;17.30;64.50;;;;;;2325019;54;21035;-68
2021/09/29 05:37:01;;;;;;;1.90;0.80;;;17.30;64.50;;;;;;2539603;53;20946;-69
2021/09/29 05:39:27;;;;;;;1.85;0.45;;;17.40;64.70;;;;;;2327183;54;21007;-68
2021/09/29 05:41:54;;;;;;;4.03;0.95;;;17.30;64.70;;;;;;2343245;55;20963;-70
2021/09/29 05:44:20;;;;;;;2.50;0.70;;;17.40;64.70;;;;;;2343827;55;20931;-68
2021/09/29 05:46:48;;;;;;;4.70;0.85;;;17.40;64.70;;;;;;2588866;53;20920;-69
2021/09/29 05:49:15;;;;;;;1.98;0.93;;;17.40;64.70;;;;;;2343076;55;20979;-68
2021/09/29 05:51:45;;;;;;;2.12;0.70;;;17.40;64.70;;;;;;2335453;55;20970;-69
2021/09/29 05:54:11;;;;;;;2.75;0.80;;;17.50;64.90;;;;;;2302043;55;20990;-69
2021/09/29 05:56:38;;;;;;;1.75;0.70;;;17.50;65.60;;;;;;2329755;54;20938;-69
2021/09/29 05:59:04;;;;;;;2.28;0.88;;;17.60;65.00;;;;;;2330353;54;20900;-68
2021/09/29 06:01:33;;;;;;;1.75;0.68;;;17.60;64.90;;;;;;2342852;54;21035;-68
2021/09/29 06:04:00;;;;;;;2.33;1.20;;;17.60;64.80;;;;;;2326992;54;21019;-70
2021/09/29 06:06:27;;;;;;;2.53;0.93;;;17.60;64.90;;;;;;2335440;54;21033;-68
2021/09/29 06:08:54;;;;;;;3.45;1.05;;;17.70;65.00;;;;;;2325589;54;20934;-68
2021/09/29 06:11:20;;;;;;;4.35;0.93;;;17.70;65.00;;;;;;2348724;53;21035;-69
2021/09/29 06:13:47;;;;;;;5.75;1.62;;;17.70;64.90;;;;;;2318510;54;20955;-69
2021/09/29 06:16:14;;;;;;;3.33;1.00;;;17.80;65.00;;;;;;2336566;54;20948;-72
2021/09/29 06:18:41;;;;;;;2.58;0.90;;;17.80;65.00;;;;;;2345702;54;20987;-71
2021/09/29 06:21:09;;;;;;;2.55;0.90;;;17.90;65.10;;;;;;2337659;54;20983;-73
2021/09/29 06:23:35;;;;;;;2.15;0.77;;;17.90;65.00;;;;;;2321734;54;20999;-69
2021/09/29 06:26:02;;;;;;;3.25;1.02;;;17.90;65.00;;;;;;2334505;54;21018;-70
2021/09/29 06:28:34;;;;;;;2.45;0.90;;;18.00;64.90;;;;;;2340139;54;20948;-69
2021/09/29 06:31:01;;;;;;;2.53;1.00;;;18.00;64.80;;;;;;2336874;54;21922;-68
2021/09/29 06:33:27;;;;;;;1.92;0.80;;;18.00;64.80;;;;;;2327189;54;20945;-69
2021/09/29 06:35:54;;;;;;;4.68;0.95;;;18.00;64.70;;;;;;2560878;52;21013;-68
2021/09/29 06:38:20;;;;;;;2.47;0.98;;;18.10;64.60;;;;;;2342991;55;21397;-69
2021/09/29 06:40:48;;;;;;;2.42;0.82;;;18.10;64.70;;;;;;2570721;52;20932;-69
2021/09/29 06:43:14;;;;;;;2.70;0.90;;;18.10;64.70;;;;;;2576360;52;20936;-69
2021/09/29 06:45:41;;;;;;;3.08;0.70;;;18.10;64.70;;;;;;2587348;53;20996;-68
2021/09/29 06:48:10;;;;;;;4.25;0.77;;;18.10;64.80;;;;;;2323584;54;20923;-68
2021/09/29 06:50:36;;;;;;;3.12;0.80;;;18.10;64.80;;;;;;2344777;55;20986;-69
2021/09/29 06:53:03;;;;;;;1.67;0.70;;;18.20;65.00;;;;;;2558461;53;20990;-70
2021/09/29 06:55:30;;;;;;;3.05;0.88;;;18.20;65.00;;;;;;2334578;54;20939;-68
2021/09/29 06:57:56;;;;;;;3.30;0.70;;;18.30;64.90;;;;;;2324271;54;20930;-68
2021/09/29 07:00:23;;;;;;;3.85;1.10;;;18.20;64.70;;;;;;2333543;54;20956;-69
2021/09/29 07:02:50;;;;;;;1.77;0.65;;;18.30;64.80;;;;;;2311516;55;20943;-69
2021/09/29 07:05:16;;;;;;;2.17;0.80;;;18.30;65.50;;;;;;2582511;53;21249;-69
2021/09/29 07:07:43;;;;;;;3.17;0.98;;;18.40;64.80;;;;;;2336560;54;21570;-70
2021/09/29 07:10:11;;;;;;;1.33;0.70;;;18.40;64.80;;;;;;2335075;54;20996;-69
2021/09/29 07:12:38;;;;;;;2.12;0.75;;;18.40;64.80;;;;;;2323951;53;21003;-70
2021/09/29 07:15:04;;;;;;;1.98;0.60;;;18.40;64.90;;;;;;2328001;54;20999;-69
2021/09/29 07:17:31;;;;;;;2.17;0.70;;;18.50;65.00;;;;;;2339534;54;21007;-69
2021/09/29 07:19:57;;;;;;;2.40;0.90;;;18.60;65.00;;;;;;2344079;55;20971;-69
2021/09/29 07:22:25;;;;;;;2.03;0.60;;;18.60;65.00;;;;;;2343426;55;21399;-68
2021/09/29 07:24:51;;;;;;;1.90;0.62;;;18.70;65.20;;;;;;2332572;54;20963;-69
2021/09/29 07:27:18;;;;;;;4.50;1.00;;;18.70;65.30;;;;;;2336950;54;21026;-74
2021/09/29 07:29:45;;;;;;;2.08;1.00;;;18.80;65.40;;;;;;2324851;54;21003;-74
2021/09/29 07:32:11;;;;;;;2.03;0.73;;;18.90;65.40;;;;;;2344653;55;21318;-69
2021/09/29 07:34:37;;;;;;;2.62;0.77;;;18.90;65.30;;;;;;2324843;54;20942;-70
2021/09/29 07:37:04;;;;;;;2.90;0.80;;;19.00;65.20;;;;;;2359924;53;20944;-68
2021/09/29 07:39:30;;;;;;;2.47;0.77;;;19.00;64.90;;;;;;2539013;52;21074;-69
2021/09/29 07:41:58;;;;;;;2.17;0.77;;;19.10;64.90;;;;;;2568272;53;20907;-72
2021/09/29 07:44:24;;;;;;;1.75;1.10;;;19.20;64.70;;;;;;2325864;54;21421;-70
2021/09/29 07:46:51;;;;;;;4.05;1.00;;;19.20;64.70;;;;;;2341699;55;20931;-68
2021/09/29 07:49:21;;;;;;;2.95;0.98;;;19.20;64.60;;;;;;2392745;53;21023;-70
2021/09/29 07:51:48;;;;;;;4.85;0.85;;;19.30;64.70;;;;;;2569453;53;20948;-69
2021/09/29 07:54:15;;;;;;;2.20;0.77;;;19.30;64.70;;;;;;2455290;53;20991;-68
2021/09/29 07:56:41;;;;;;;2.58;0.90;;;19.40;64.80;;;;;;2342599;55;20947;-68
2021/09/29 07:59:07;;;;;;;2.85;0.70;;;19.50;64.40;;;;;;2342211;55;21548;-70
2021/09/29 08:01:33;;;;;;;4.10;0.90;;;19.60;64.60;;;;;;2344234;54;21536;-68
2021/09/29 08:04:00;;;;;;;2.33;0.50;;;19.60;64.30;;;;;;2343631;55;21491;-69
2021/09/29 08:06:28;;;;;;;2.05;0.70;;;19.70;64.20;;;;;;2323385;54;21773;-69
2021/09/29 08:08:54;;;;;;;6.47;1.00;;;19.70;64.20;;;;;;2343974;55;20943;-69
2021/09/29 08:11:23;;;;;;;2.70;0.90;;;19.80;63.70;;;;;;2487409;53;21007;-68
2021/09/29 08:13:49;;;;;;;1.90;0.75;;;19.90;63.30;;;;;;2579301;53;21028;-73
2021/09/29 08:16:16;;;;;;;2.87;0.93;;;19.90;63.20;;;;;;2321375;54;20978;-71
2021/09/29 08:18:42;;;;;;;3.05;0.88;;;20.00;62.90;;;;;;2339995;54;21842;-73
2021/09/29 08:21:14;;;;;;;2.70;0.80;;;20.10;62.90;;;;;;2327369;54;20944;-68
2021/09/29 08:23:42;;;;;;;1.53;0.60;;;20.10;62.90;;;;;;2347437;55;21010;-69
2021/09/29 08:26:33;;;;;;;2.97;0.90;;;20.10;62.60;;;;;;2346230;55;21301;-69
2021/09/29 08:40:47;;;;;;;2.15;0.62;;;20.40;62.00;;;;;;2343305;55;20994;-74
2021/09/29 08:48:48;;;;;;;1.70;0.60;;;20.50;62.10;;;;;;2563344;52;20987;-71
2021/09/29 08:51:47;;;;;;;2.40;0.60;;;20.50;61.30;;;;;;2316852;55;20943;-69
2021/09/29 09:16:50;;;;;;;2.97;0.70;;;20.60;60.20;;;;;;2321441;54;21026;-68
2021/09/29 09:19:25;;;;;;;1.62;0.60;;;20.50;59.30;;;;;;2344293;54;21878;-72
2021/09/29 09:22:55;;;;;;;3.00;0.70;;;20.50;59.70;;;;;;2435525;53;21713;-72
2021/09/29 09:25:36;;;;;;;6.70;0.88;;;20.50;59.40;;;;;;2575902;53;21852;-69
2021/09/29 09:28:04;;;;;;;3.12;0.60;;;20.50;59.30;;;;;;2334413;54;20952;-68
2021/09/29 09:30:39;;;;;;;2.20;0.73;;;20.40;59.80;;;;;;2333928;54;21010;-68
2021/09/29 09:33:05;;;;;;;3.37;0.60;;;20.40;59.90;;;;;;2334733;54;21467;-67
2021/09/29 09:35:43;;;;;;;3.75;0.98;;;20.40;60.30;;;;;;2328466;54;21464;-68
2021/09/29 09:38:20;;;;;;;4.00;0.90;;;20.40;60.00;;;;;;2341942;54;20920;-68
2021/09/29 09:40:53;;;;;;;2.40;0.77;;;20.40;60.80;;;;;;2343800;55;20938;-69
2021/09/29 09:43:21;;;;;;;2.75;0.80;;;20.40;60.20;;;;;;2345989;54;20972;-68
2021/09/29 09:45:48;;;;;;;2.17;0.68;;;20.40;60.50;;;;;;2331391;54;20983;-71
2021/09/29 09:48:22;;;;;;;8.40;0.98;;;20.40;60.50;;;;;;2324126;54;20991;-67
2021/09/29 09:51:15;;;;;;;3.40;0.80;;;20.40;60.30;;;;;;2589264;53;21032;-69
2021/09/29 09:53:54;;;;;;;3.33;0.57;;;20.40;60.50;;;;;;2344250;55;20955;-74
2021/09/29 09:56:23;;;;;;;2.22;0.65;;;20.50;60.50;;;;;;2313200;55;20939;-69
2021/09/29 09:58:56;;;;;;;2.72;0.73;;;20.50;60.80;;;;;;2336659;54;20995;-68
2021/09/29 10:01:27;;;;;;;2.03;0.60;;;20.50;60.70;;;;;;2326385;54;20963;-70
2021/09/29 10:03:53;;;;;;;2.30;0.70;;;20.50;60.50;;;;;;2302838;55;21041;-68
2021/09/29 10:06:21;;;;;;;2.10;0.80;;;20.60;60.70;;;;;;2589876;53;20935;-69
2021/09/29 10:08:58;;;;;;;3.00;1.00;;;20.60;60.30;;;;;;2343753;55;21016;-68
2021/09/29 10:12:27;;;;;;;3.58;0.90;;;20.60;60.30;;;;;;2334149;54;21844;-67
2021/09/29 10:30:11;;;;;;;2.45;0.60;;;21.10;61.40;;;;;;2327933;54;20967;-74
2021/09/29 10:32:46;;;;;;;2.37;0.70;;;21.40;60.80;;;;;;2323137;54;20923;-67
2021/09/29 10:41:23;;;;;;;2.25;0.62;;;21.60;60.00;;;;;;2344313;55;21027;-68
2021/09/29 10:44:03;;;;;;;2.62;0.60;;;21.60;59.80;;;;;;2354556;53;20975;-68
2021/09/29 10:46:40;;;;;;;6.40;1.00;;;21.60;59.50;;;;;;2324750;55;21416;-69
2021/09/29 10:49:14;;;;;;;2.35;0.52;;;21.70;59.00;;;;;;2324000;54;21006;-67
2021/09/29 10:52:09;;;;;;;2.45;0.52;;;21.70;59.30;;;;;;2578949;53;21059;-68
2021/09/29 11:03:30;;;;;;;;;;;21.80;59.00;;;;;;2347686;55;20951;-68
2021/09/29 11:06:36;;;;;;;3.55;1.00;;;21.90;58.90;;;;;;2330328;55;20087;-69
2021/09/29 11:10:08;;;;;;;2.80;0.70;;;21.80;58.60;;;;;;2315557;54;20961;-68
2021/09/29 11:29:45;;;;;;;3.97;0.80;;;22.10;58.30;;;;;;2341679;54;21003;-69
2021/09/29 11:32:34;;;;;;;2.78;0.60;;;22.20;58.80;;;;;;2347917;55;20944;-69
2021/09/29 11:35:14;;;;;;;5.35;1.27;;;22.30;58.00;;;;;;2341915;54;21472;-68
2021/09/29 11:38:30;;;;;;;3.33;0.70;;;22.40;57.60;;;;;;2554041;53;20971;-68
2021/09/29 12:09:53;;;;;;;1.48;0.43;;;22.80;55.70;;;;;;2327416;54;21564;-70
2021/09/29 12:12:33;;;;;;;3.72;0.60;;;22.80;55.70;;;;;;2333655;54;20953;-71
2021/09/29 12:15:02;;;;;;;1.55;0.40;;;22.80;55.60;;;;;;2320695;54;21841;-71
2021/09/29 12:17:37;;;;;;;2.22;0.40;;;22.80;55.60;;;;;;2342018;55;21404;-69
2021/09/29 12:20:20;;;;;;;1.48;0.50;;;22.70;55.20;;;;;;2342370;55;21835;-68
2021/09/29 12:22:50;;;;;;;;;;;22.70;55.20;;;;;;2313901;55;21579;-67
2021/09/29 12:26:18;;;;;;;1.55;0.40;;;22.70;55.40;;;;;;2317842;55;20186;-70
2021/09/29 12:29:08;;;;;;;2.05;0.50;;;22.60;55.00;;;;;;2342461;55;20956;-68
2021/09/29 12:31:52;;;;;;;0.95;0.32;;;22.60;55.60;;;;;;2337346;54;21614;-71
2021/09/29 12:37:10;;;;;;;1.27;0.43;;;22.30;55.90;;;;;;2320383;54;21023;-69
2021/09/29 12:39:38;;;;;;;0.60;0.20;;;22.30;56.10;;;;;;2338812;54;20995;-68
2021/09/29 12:42:27;;;;;;;1.37;0.40;;;22.20;56.40;;;;;;2306437;55;21118;-68
2021/09/29 12:44:54;;;;;;;1.45;0.45;;;22.10;56.30;;;;;;2331127;54;20959;-68
2021/09/29 12:47:42;;;;;;;0.95;0.40;;;22.10;56.80;;;;;;2342250;55;20931;-68
2021/09/29 12:50:21;;;;;;;1.85;0.50;;;22.00;56.80;;;;;;2342056;54;20971;-67
2021/09/29 12:52:57;;;;;;;1.50;0.30;;;21.90;56.80;;;;;;2342132;55;20952;-71
2021/09/29 12:55:33;;;;;;;1.20;0.22;;;21.90;57.00;;;;;;2560193;53;20976;-67
2021/09/29 12:57:59;;;;;;;1.23;0.55;;;21.80;57.00;;;;;;2321889;54;20974;-67
2021/09/29 13:00:25;;;;;;;1.65;0.50;;;21.80;57.10;;;;;;2334286;54;21737;-69
2021/09/29 13:02:52;;;;;;;1.48;0.35;;;21.80;57.10;;;;;;2555560;52;20983;-68
2021/09/29 13:05:18;;;;;;;0.68;0.30;;;21.80;57.10;;;;;;2335479;54;20999;-68
2021/09/29 13:07:45;;;;;;;2.20;0.30;;;21.70;57.00;;;;;;2334512;53;20950;-68
2021/09/29 13:10:11;;;;;;;1.60;0.73;;;21.60;56.80;;;;;;2332250;55;20971;-68
2021/09/29 13:12:38;;;;;;;0.73;0.30;;;21.50;56.60;;;;;;2334657;54;20939;-66
2021/09/29 13:15:04;;;;;;;1.15;0.40;;;21.40;56.50;;;;;;2320582;54;21003;-68
2021/09/29 13:17:31;;;;;;;2.30;0.30;;;21.20;56.40;;;;;;2344254;54;20959;-69
2021/09/29 13:20:01;;;;;;;1.00;0.32;;;21.10;56.90;;;;;;2319527;54;20988;-68
2021/09/29 13:22:28;;;;;;;2.60;0.50;;;20.80;56.30;;;;;;2322852;53;21054;-65
2021/09/29 13:38:47;;;;;;;0.40;0.17;;;19.60;57.30;;;;;;2328819;54;21441;-66
2021/09/29 13:41:13;;;;;;;0.70;0.20;;;19.30;57.70;;;;;;2328029;54;20935;-66
2021/09/29 13:43:39;;;;;;;1.17;0.30;;;19.20;58.20;;;;;;2337651;54;21523;-66
2021/09/29 13:46:07;;;;;;;1.08;0.35;;;19.00;58.60;;;;;;2330134;54;20936;-67
2021/09/29 13:48:35;;;;;;;0.50;0.20;;;18.90;59.00;;;;;;2342676;55;20975;-66
2021/09/29 13:51:01;;;;;;;1.75;0.30;;;18.80;59.30;;;;;;2337233;54;20959;-66
2021/09/29 13:53:29;;;;;;;0.57;0.25;;;18.70;59.50;;;;;;2326948;54;20983;-67
2021/09/29 13:55:57;;;;;;;1.10;0.35;;;18.60;59.80;;;;;;2323059;54;21906;-68
2021/09/29 13:58:44;;;;;;;1.85;0.40;;;18.50;60.00;;;;;;2585834;53;21118;-67
2021/09/29 14:30:04;;;;;;;0.52;0.20;;;17.70;62.20;;;;;;2329562;54;21011;-68
2021/09/29 14:32:43;;;;;;;1.05;0.30;;;17.60;62.40;;;;;;2327403;54;21047;-68
2021/09/29 14:35:09;;;;;;;0.50;0.20;;;17.60;62.80;;;;;;2548326;53;20987;-67
2021/09/29 14:37:35;;;;;;;1.35;0.30;;;17.60;63.10;;;;;;2555923;52;21008;-67
2021/09/29 14:40:06;;;;;;;0.70;0.30;;;17.60;63.30;;;;;;2332932;54;20850;-69
2021/09/29 14:42:33;;;;;;;0.75;0.30;;;17.60;63.60;;;;;;2339632;55;21659;-67
2021/09/29 14:44:59;;;;;;;1.75;0.85;;;17.60;63.60;;;;;;2322111;54;21243;-67
2021/09/29 14:47:26;;;;;;;0.85;0.30;;;17.50;63.60;;;;;;2343558;55;20939;-69
2021/09/29 14:49:52;;;;;;;1.10;0.40;;;17.60;63.90;;;;;;2320755;54;20940;-69
2021/09/29 14:52:19;;;;;;;1.70;0.30;;;17.60;64.00;;;;;;2519948;53;20972;-68
2021/09/29 14:54:45;;;;;;;0.73;0.25;;;17.60;64.20;;;;;;2319630;54;21459;-69
2021/09/29 14:57:11;;;;;;;0.35;0.20;;;17.60;64.30;;;;;;2341892;54;20923;-69
2021/09/29 14:59:44;;;;;;;0.62;0.28;;;17.60;64.50;;;;;;2341590;55;21054;-69
2021/09/29 15:02:11;;;;;;;0.35;0.20;;;17.60;64.70;;;;;;2318045;54;21042;-67
2021/09/29 15:04:37;;;;;;;1.17;0.60;;;17.60;64.80;;;;;;2459291;53;21389;-67
2021/09/29 15:07:04;;;;;;;0.52;0.20;;;17.60;65.00;;;;;;2341698;55;20992;-70
2021/09/29 15:09:31;;;;;;;0.55;0.20;;;17.70;65.20;;;;;;2341607;55;20979;-66
2021/09/29 15:12:00;;;;;;;0.15;0.10;;;17.70;65.30;;;;;;2341937;55;21020;-67
2021/09/29 15:14:31;;;;;;;0.57;0.30;;;17.70;65.40;;;;;;2337921;54;21459;-66
2021/09/29 15:17:43;;;;;;;1.47;0.30;;;17.70;65.60;;;;;;2326078;54;21018;-68
2021/09/29 15:20:34;;;;;;;1.25;0.28;;;17.70;65.80;;;;;;2333432;54;21247;-69
2021/09/29 15:48:04;;;;;;;2.85;0.30;;;18.10;66.60;;;;;;2365275;53;20979;-68
2021/09/29 15:51:02;;;;;;;0.70;0.30;;;18.20;66.70;;;;;;2325909;54;20943;-70
2021/09/29 15:53:37;;;;;;;1.25;0.50;;;18.20;66.50;;;;;;2344226;55;20939;-67
2021/09/29 15:56:13;;;;;;;0.75;0.40;;;18.20;66.40;;;;;;2320185;54;20963;-72
2021/09/29 15:59:01;;;;;;;1.52;0.60;;;18.20;66.30;;;;;;2341188;55;21039;-69
2021/09/29 16:01:32;;;;;;;2.55;0.62;;;18.20;66.50;;;;;;2341393;55;20919;-69
2021/09/29 16:04:19;;;;;;;1.33;0.45;;;18.20;66.40;;;;;;2342136;55;20975;-68
2021/09/29 16:07:01;;;;;;;1.95;0.68;;;18.10;66.10;;;;;;2333963;55;21455;-69
2021/09/29 16:12:53;;;;;;;3.67;1.00;;;18.10;66.60;;;;;;2341677;54;21819;-66
2021/09/29 16:31:23;;;;;;;1.98;0.85;;;18.20;66.20;;;;;;2341365;55;20971;-71